Aktuální počasí v Česku a ve světě - METAR

Seznam meteostanic umístěných nejčasteji na letišti v ČR a ve světě

Vyhledat místa podle abecedy:
A B C D E F G H I J K L M N O P Q R S T U V W X Y Z

Filtrovat:

ID stanice:
a/nebo
Název místa (fulltext):
 
Místo (ID)Naposledy načteno 
Gaborone (FBSK) 22.04.2024 06:00 UTC Zobrazit METAR
FBSK 220600Z VRB02KT CAVOK 18/12 Q1021 NOSIG
Gaza (LVGZ) Zatím nenačteno  
Geneva (LSGG) 22.04.2024 05:50 UTC Zobrazit METAR
LSGG 220550Z 03006KT 9999 FEW030 SCT040 02/M02 Q1017 NOSIG
George Town (MWCR) 22.04.2024 03:00 UTC Zobrazit METAR
MWCR 220300Z 04007KT 350V070 9999 FEW020 27/23 Q1014
Georgetown (SYCJ) 22.04.2024 06:00 UTC Zobrazit METAR
SYCJ 220600Z VRB02KT 9999 FEW014 SCT034 25/24 Q1011 NOSIG
Gibraltar (LXGB) 22.04.2024 05:50 UTC Zobrazit METAR
LXGB 220550Z 25003KT 9999 FEW020 14/11 Q1014 NOSIG
Glasgow (EGPF) 22.04.2024 05:50 UTC Zobrazit METAR
EGPF 220550Z AUTO 23004KT 9999 SCT026 06/05 Q1030
Gomel (UMGG) 30.08.2014 17:00 UTC Zobrazit METAR
UMGG 301700Z CAVOK 19/10 Q1017 R28/CLRD// NOSIG
Goteborg (ESGG) 22.04.2024 05:50 UTC Zobrazit METAR
ESGG 220550Z 03010KT CAVOK M02/M07 Q1027
Grand Turk Island (MBGT) 21.04.2024 00:00 UTC Zobrazit METAR
MBGT 210000Z 07012KT 9999 SCT015 25/19 Q1017
Graz (LOWG) 21.04.2024 19:50 UTC Zobrazit METAR
LOWG 211950Z AUTO 24002KT 9999 FEW070 06/M02 Q1016 NOSIG
Grodno (UMMG) Zatím nenačteno  
Guatemala City (MGGT) 22.04.2024 06:00 UTC Zobrazit METAR
MGGT 220600Z 36004KT 5000 BR SCT012 BKN080 19/18 Q1021 A3015
Reklama

Krásné fotografie přírody - (nejen) tapety na pozadí do počítače

Článek
Fotogalerie jarních květin
13. dubna 2023 12:19
Článek
Fotografie slunečné zimní krajiny
7. prosince 2022 17:13
Článek
Obrázky na téma slunečno
25. srpna 2022 05:03
Článek
Obrázky květin
5. června 2022 12:12

Vyhledat
Přidejte si Počasí Slunečno na svůj Facebook
Facebook Počasí Slunečno.cz
Aplikace pro Windows 10/11 nebo chytré mobilní telefony
Stáhněte si aplikaci Slunečno.cz na Microsoft Store Stáhněte si aplikaci Slunečno.cz na Google Play